sensor_id;sensor_type;location;lat;lon;timestamp;P1;durP1;ratioP1;P2;durP2;ratioP2
6757;SDS011;3416;53.074;8.822;2024-01-30T00:00:32;28.48;;;18.40;;
6757;SDS011;3416;53.074;8.822;2024-01-30T00:03:00;25.73;;;15.50;;
6757;SDS011;3416;53.074;8.822;2024-01-30T00:05:28;22.70;;;17.73;;
6757;SDS011;3416;53.074;8.822;2024-01-30T00:07:55;20.10;;;17.13;;
6757;SDS011;3416;53.074;8.822;2024-01-30T00:10:22;27.13;;;18.65;;
6757;SDS011;3416;53.074;8.822;2024-01-30T00:12:49;19.83;;;15.77;;
6757;SDS011;3416;53.074;8.822;2024-01-30T00:15:16;22.67;;;17.65;;
6757;SDS011;3416;53.074;8.822;2024-01-30T00:17:44;27.95;;;17.75;;
6757;SDS011;3416;53.074;8.822;2024-01-30T00:20:11;22.48;;;18.25;;
6757;SDS011;3416;53.074;8.822;2024-01-30T00:22:39;18.75;;;14.95;;
6757;SDS011;3416;53.074;8.822;2024-01-30T00:25:07;23.38;;;17.70;;
6757;SDS011;3416;53.074;8.822;2024-01-30T00:27:34;21.98;;;16.58;;
6757;SDS011;3416;53.074;8.822;2024-01-30T00:30:01;24.55;;;18.90;;
6757;SDS011;3416;53.074;8.822;2024-01-30T00:32:30;22.17;;;17.08;;
6757;SDS011;3416;53.074;8.822;2024-01-30T00:34:57;24.23;;;16.13;;
6757;SDS011;3416;53.074;8.822;2024-01-30T00:37:24;21.90;;;16.77;;
6757;SDS011;3416;53.074;8.822;2024-01-30T00:39:53;22.30;;;15.85;;
6757;SDS011;3416;53.074;8.822;2024-01-30T00:42:20;21.20;;;15.30;;
6757;SDS011;3416;53.074;8.822;2024-01-30T00:44:48;18.92;;;15.60;;
6757;SDS011;3416;53.074;8.822;2024-01-30T00:47:15;20.92;;;16.73;;
6757;SDS011;3416;53.074;8.822;2024-01-30T00:49:42;21.77;;;16.02;;
6757;SDS011;3416;53.074;8.822;2024-01-30T00:52:09;20.23;;;15.95;;
6757;SDS011;3416;53.074;8.822;2024-01-30T00:54:36;20.92;;;16.13;;
6757;SDS011;3416;53.074;8.822;2024-01-30T00:57:05;23.88;;;17.52;;
6757;SDS011;3416;53.074;8.822;2024-01-30T00:59:32;21.27;;;16.10;;
6757;SDS011;3416;53.074;8.822;2024-01-30T01:01:59;21.20;;;17.83;;
6757;SDS011;3416;53.074;8.822;2024-01-30T01:04:26;18.15;;;14.43;;
6757;SDS011;3416;53.074;8.822;2024-01-30T01:06:52;17.63;;;15.27;;
6757;SDS011;3416;53.074;8.822;2024-01-30T01:09:19;18.83;;;14.00;;
6757;SDS011;3416;53.074;8.822;2024-01-30T01:11:47;18.02;;;15.20;;
6757;SDS011;3416;53.074;8.822;2024-01-30T01:14:15;19.60;;;14.38;;
6757;SDS011;3416;53.074;8.822;2024-01-30T01:16:42;18.67;;;13.80;;
6757;SDS011;3416;53.074;8.822;2024-01-30T01:19:09;17.15;;;14.40;;
6757;SDS011;3416;53.074;8.822;2024-01-30T01:21:36;22.63;;;15.93;;
6757;SDS011;3416;53.074;8.822;2024-01-30T01:24:03;19.13;;;16.35;;
6757;SDS011;3416;53.074;8.822;2024-01-30T01:26:36;19.08;;;16.00;;
6757;SDS011;3416;53.074;8.822;2024-01-30T01:29:03;19.50;;;13.57;;
6757;SDS011;3416;53.074;8.822;2024-01-30T01:31:36;26.80;;;15.35;;
6757;SDS011;3416;53.074;8.822;2024-01-30T01:34:08;22.35;;;13.68;;
6757;SDS011;3416;53.074;8.822;2024-01-30T01:36:35;21.55;;;15.98;;
6757;SDS011;3416;53.074;8.822;2024-01-30T01:39:02;20.38;;;15.10;;
6757;SDS011;3416;53.074;8.822;2024-01-30T01:41:30;19.08;;;14.63;;
6757;SDS011;3416;53.074;8.822;2024-01-30T01:43:57;18.95;;;14.20;;
6757;SDS011;3416;53.074;8.822;2024-01-30T01:46:26;15.40;;;12.95;;
6757;SDS011;3416;53.074;8.822;2024-01-30T01:48:55;19.10;;;16.50;;
6757;SDS011;3416;53.074;8.822;2024-01-30T01:51:22;17.33;;;13.82;;
6757;SDS011;3416;53.074;8.822;2024-01-30T01:53:53;18.80;;;13.75;;
6757;SDS011;3416;53.074;8.822;2024-01-30T01:56:21;20.42;;;14.15;;
6757;SDS011;3416;53.074;8.822;2024-01-30T01:58:48;19.33;;;13.63;;
6757;SDS011;3416;53.074;8.822;2024-01-30T02:01:17;19.70;;;14.95;;
6757;SDS011;3416;53.074;8.822;2024-01-30T02:03:46;14.20;;;12.57;;
6757;SDS011;3416;53.074;8.822;2024-01-30T02:06:15;16.50;;;14.40;;
6757;SDS011;3416;53.074;8.822;2024-01-30T02:08:42;16.98;;;13.30;;
6757;SDS011;3416;53.074;8.822;2024-01-30T02:11:09;20.70;;;14.02;;
6757;SDS011;3416;53.074;8.822;2024-01-30T02:13:38;19.67;;;12.75;;
6757;SDS011;3416;53.074;8.822;2024-01-30T02:16:05;17.05;;;12.73;;
6757;SDS011;3416;53.074;8.822;2024-01-30T02:18:33;15.85;;;13.40;;
6757;SDS011;3416;53.074;8.822;2024-01-30T02:21:04;17.23;;;13.82;;
6757;SDS011;3416;53.074;8.822;2024-01-30T02:23:32;16.98;;;11.93;;
6757;SDS011;3416;53.074;8.822;2024-01-30T02:26:00;15.43;;;13.30;;
6757;SDS011;3416;53.074;8.822;2024-01-30T02:28:27;15.70;;;13.73;;
6757;SDS011;3416;53.074;8.822;2024-01-30T02:30:54;17.45;;;15.15;;
6757;SDS011;3416;53.074;8.822;2024-01-30T02:33:21;17.95;;;13.40;;
6757;SDS011;3416;53.074;8.822;2024-01-30T02:35:48;19.98;;;13.88;;
6757;SDS011;3416;53.074;8.822;2024-01-30T02:38:17;17.05;;;12.90;;
6757;SDS011;3416;53.074;8.822;2024-01-30T02:40:45;15.05;;;13.25;;
6757;SDS011;3416;53.074;8.822;2024-01-30T02:43:12;19.90;;;15.75;;
6757;SDS011;3416;53.074;8.822;2024-01-30T02:45:39;17.17;;;15.32;;
6757;SDS011;3416;53.074;8.822;2024-01-30T02:48:06;21.42;;;14.15;;
6757;SDS011;3416;53.074;8.822;2024-01-30T02:50:34;19.60;;;15.57;;
6757;SDS011;3416;53.074;8.822;2024-01-30T02:53:01;20.42;;;16.08;;
6757;SDS011;3416;53.074;8.822;2024-01-30T02:55:31;22.50;;;17.42;;
6757;SDS011;3416;53.074;8.822;2024-01-30T02:57:57;16.70;;;14.85;;
6757;SDS011;3416;53.074;8.822;2024-01-30T03:00:25;14.25;;;12.30;;
6757;SDS011;3416;53.074;8.822;2024-01-30T03:02:52;18.08;;;16.23;;
6757;SDS011;3416;53.074;8.822;2024-01-30T03:05:20;17.75;;;13.73;;
6757;SDS011;3416;53.074;8.822;2024-01-30T03:07:47;19.30;;;15.18;;
6757;SDS011;3416;53.074;8.822;2024-01-30T03:10:14;22.73;;;15.93;;
6757;SDS011;3416;53.074;8.822;2024-01-30T03:12:42;17.10;;;15.30;;
6757;SDS011;3416;53.074;8.822;2024-01-30T03:15:09;18.02;;;14.27;;
6757;SDS011;3416;53.074;8.822;2024-01-30T03:17:37;16.15;;;14.15;;
6757;SDS011;3416;53.074;8.822;2024-01-30T03:20:05;22.58;;;14.75;;
6757;SDS011;3416;53.074;8.822;2024-01-30T03:22:32;17.92;;;13.80;;
6757;SDS011;3416;53.074;8.822;2024-01-30T03:24:59;17.48;;;13.80;;
6757;SDS011;3416;53.074;8.822;2024-01-30T03:27:26;19.48;;;15.32;;
6757;SDS011;3416;53.074;8.822;2024-01-30T03:29:55;16.25;;;14.32;;
6757;SDS011;3416;53.074;8.822;2024-01-30T03:32:22;18.77;;;13.98;;
6757;SDS011;3416;53.074;8.822;2024-01-30T03:34:49;18.27;;;15.98;;
6757;SDS011;3416;53.074;8.822;2024-01-30T03:37:16;15.82;;;13.15;;
6757;SDS011;3416;53.074;8.822;2024-01-30T03:39:43;20.02;;;15.55;;
6757;SDS011;3416;53.074;8.822;2024-01-30T03:42:11;17.70;;;14.95;;
6757;SDS011;3416;53.074;8.822;2024-01-30T03:44:39;17.75;;;14.80;;
6757;SDS011;3416;53.074;8.822;2024-01-30T03:47:07;17.67;;;15.13;;
6757;SDS011;3416;53.074;8.822;2024-01-30T03:49:34;15.88;;;13.32;;
6757;SDS011;3416;53.074;8.822;2024-01-30T03:52:01;19.13;;;13.93;;
6757;SDS011;3416;53.074;8.822;2024-01-30T03:54:29;18.08;;;13.65;;
6757;SDS011;3416;53.074;8.822;2024-01-30T03:56:56;21.98;;;15.38;;
6757;SDS011;3416;53.074;8.822;2024-01-30T03:59:23;17.65;;;14.25;;
6757;SDS011;3416;53.074;8.822;2024-01-30T04:01:50;19.92;;;14.95;;
6757;SDS011;3416;53.074;8.822;2024-01-30T04:04:18;17.88;;;14.70;;
6757;SDS011;3416;53.074;8.822;2024-01-30T04:06:45;19.98;;;14.85;;
6757;SDS011;3416;53.074;8.822;2024-01-30T04:09:12;20.25;;;15.15;;
6757;SDS011;3416;53.074;8.822;2024-01-30T04:11:40;18.40;;;13.75;;
6757;SDS011;3416;53.074;8.822;2024-01-30T04:14:07;19.10;;;15.90;;
6757;SDS011;3416;53.074;8.822;2024-01-30T04:16:34;19.13;;;15.27;;
6757;SDS011;3416;53.074;8.822;2024-01-30T04:19:01;19.88;;;16.02;;
6757;SDS011;3416;53.074;8.822;2024-01-30T04:21:29;21.38;;;15.90;;
6757;SDS011;3416;53.074;8.822;2024-01-30T04:23:56;23.58;;;15.48;;
6757;SDS011;3416;53.074;8.822;2024-01-30T04:26:24;28.98;;;16.48;;
6757;SDS011;3416;53.074;8.822;2024-01-30T04:28:51;16.10;;;14.20;;
6757;SDS011;3416;53.074;8.822;2024-01-30T04:31:17;19.20;;;16.95;;
6757;SDS011;3416;53.074;8.822;2024-01-30T04:33:45;20.42;;;16.83;;
6757;SDS011;3416;53.074;8.822;2024-01-30T04:36:11;23.30;;;18.52;;
6757;SDS011;3416;53.074;8.822;2024-01-30T04:38:40;20.00;;;16.48;;
6757;SDS011;3416;53.074;8.822;2024-01-30T04:41:07;18.20;;;15.07;;
6757;SDS011;3416;53.074;8.822;2024-01-30T04:43:34;21.27;;;15.20;;
6757;SDS011;3416;53.074;8.822;2024-01-30T04:46:01;24.17;;;16.85;;
6757;SDS011;3416;53.074;8.822;2024-01-30T04:48:28;22.17;;;15.82;;
6757;SDS011;3416;53.074;8.822;2024-01-30T04:50:55;22.85;;;17.80;;
6757;SDS011;3416;53.074;8.822;2024-01-30T04:53:22;19.55;;;16.83;;
6757;SDS011;3416;53.074;8.822;2024-01-30T04:55:51;21.92;;;15.98;;
6757;SDS011;3416;53.074;8.822;2024-01-30T04:58:18;22.63;;;15.30;;
6757;SDS011;3416;53.074;8.822;2024-01-30T05:00:45;20.02;;;16.25;;
6757;SDS011;3416;53.074;8.822;2024-01-30T05:03:16;18.75;;;15.13;;
6757;SDS011;3416;53.074;8.822;2024-01-30T05:05:43;22.05;;;16.50;;
6757;SDS011;3416;53.074;8.822;2024-01-30T05:08:10;22.73;;;18.05;;
6757;SDS011;3416;53.074;8.822;2024-01-30T05:10:37;23.83;;;16.20;;
6757;SDS011;3416;53.074;8.822;2024-01-30T05:13:05;20.58;;;16.67;;
6757;SDS011;3416;53.074;8.822;2024-01-30T05:15:33;17.40;;;14.38;;
6757;SDS011;3416;53.074;8.822;2024-01-30T05:18:00;23.40;;;18.27;;
6757;SDS011;3416;53.074;8.822;2024-01-30T05:20:28;22.77;;;17.52;;
6757;SDS011;3416;53.074;8.822;2024-01-30T05:22:55;17.48;;;15.55;;
6757;SDS011;3416;53.074;8.822;2024-01-30T05:25:22;20.08;;;17.05;;
6757;SDS011;3416;53.074;8.822;2024-01-30T05:27:49;18.17;;;15.57;;
6757;SDS011;3416;53.074;8.822;2024-01-30T05:30:18;20.85;;;17.60;;
6757;SDS011;3416;53.074;8.822;2024-01-30T05:32:45;23.92;;;18.30;;
6757;SDS011;3416;53.074;8.822;2024-01-30T05:35:12;23.33;;;17.80;;
6757;SDS011;3416;53.074;8.822;2024-01-30T05:37:39;25.90;;;18.60;;
6757;SDS011;3416;53.074;8.822;2024-01-30T05:40:06;23.50;;;18.27;;
6757;SDS011;3416;53.074;8.822;2024-01-30T05:42:34;22.73;;;17.42;;
6757;SDS011;3416;53.074;8.822;2024-01-30T05:45:03;20.25;;;16.77;;
6757;SDS011;3416;53.074;8.822;2024-01-30T05:47:31;28.73;;;19.23;;
6757;SDS011;3416;53.074;8.822;2024-01-30T05:49:58;21.02;;;17.27;;
6757;SDS011;3416;53.074;8.822;2024-01-30T05:52:25;25.98;;;18.17;;
6757;SDS011;3416;53.074;8.822;2024-01-30T05:54:53;21.35;;;18.25;;
6757;SDS011;3416;53.074;8.822;2024-01-30T05:57:20;32.90;;;19.52;;
6757;SDS011;3416;53.074;8.822;2024-01-30T05:59:48;29.13;;;18.50;;
6757;SDS011;3416;53.074;8.822;2024-01-30T06:02:17;25.30;;;17.85;;
6757;SDS011;3416;53.074;8.822;2024-01-30T06:04:45;21.83;;;17.50;;
6757;SDS011;3416;53.074;8.822;2024-01-30T06:07:12;23.25;;;17.77;;
6757;SDS011;3416;53.074;8.822;2024-01-30T06:09:39;21.55;;;17.08;;
6757;SDS011;3416;53.074;8.822;2024-01-30T06:12:06;21.38;;;18.77;;
6757;SDS011;3416;53.074;8.822;2024-01-30T06:14:33;25.60;;;20.00;;
6757;SDS011;3416;53.074;8.822;2024-01-30T06:17:00;24.67;;;18.85;;
6757;SDS011;3416;53.074;8.822;2024-01-30T06:19:27;22.67;;;17.85;;
6757;SDS011;3416;53.074;8.822;2024-01-30T06:21:58;24.50;;;19.08;;
6757;SDS011;3416;53.074;8.822;2024-01-30T06:24:25;24.70;;;19.48;;
6757;SDS011;3416;53.074;8.822;2024-01-30T06:26:53;25.95;;;18.98;;
6757;SDS011;3416;53.074;8.822;2024-01-30T06:29:19;22.80;;;18.67;;
6757;SDS011;3416;53.074;8.822;2024-01-30T06:31:47;22.75;;;17.80;;
6757;SDS011;3416;53.074;8.822;2024-01-30T06:34:14;20.63;;;17.13;;
6757;SDS011;3416;53.074;8.822;2024-01-30T06:36:41;20.65;;;16.02;;
6757;SDS011;3416;53.074;8.822;2024-01-30T06:39:09;27.15;;;18.73;;
6757;SDS011;3416;53.074;8.822;2024-01-30T06:41:36;26.45;;;19.90;;
6757;SDS011;3416;53.074;8.822;2024-01-30T06:44:03;21.45;;;16.85;;
6757;SDS011;3416;53.074;8.822;2024-01-30T06:46:31;29.85;;;20.10;;
6757;SDS011;3416;53.074;8.822;2024-01-30T06:48:59;22.40;;;17.27;;
6757;SDS011;3416;53.074;8.822;2024-01-30T06:51:26;27.70;;;18.55;;
6757;SDS011;3416;53.074;8.822;2024-01-30T06:53:53;26.38;;;18.05;;
6757;SDS011;3416;53.074;8.822;2024-01-30T06:56:22;26.15;;;20.33;;
6757;SDS011;3416;53.074;8.822;2024-01-30T06:58:50;22.10;;;17.70;;
6757;SDS011;3416;53.074;8.822;2024-01-30T07:01:17;25.80;;;19.60;;
6757;SDS011;3416;53.074;8.822;2024-01-30T07:03:44;24.80;;;19.40;;
6757;SDS011;3416;53.074;8.822;2024-01-30T07:06:11;24.63;;;18.48;;
6757;SDS011;3416;53.074;8.822;2024-01-30T07:08:38;27.27;;;20.63;;
6757;SDS011;3416;53.074;8.822;2024-01-30T07:11:05;28.45;;;20.77;;
6757;SDS011;3416;53.074;8.822;2024-01-30T07:13:34;27.88;;;22.60;;
6757;SDS011;3416;53.074;8.822;2024-01-30T07:16:03;22.38;;;18.85;;
6757;SDS011;3416;53.074;8.822;2024-01-30T07:18:30;26.35;;;20.83;;
6757;SDS011;3416;53.074;8.822;2024-01-30T07:20:57;22.77;;;18.23;;
6757;SDS011;3416;53.074;8.822;2024-01-30T07:23:24;23.48;;;19.88;;
6757;SDS011;3416;53.074;8.822;2024-01-30T07:25:52;26.83;;;19.13;;
6757;SDS011;3416;53.074;8.822;2024-01-30T07:28:19;21.98;;;18.27;;
6757;SDS011;3416;53.074;8.822;2024-01-30T07:30:47;30.77;;;20.70;;
6757;SDS011;3416;53.074;8.822;2024-01-30T07:33:15;30.42;;;20.70;;
6757;SDS011;3416;53.074;8.822;2024-01-30T07:35:42;20.85;;;17.35;;
6757;SDS011;3416;53.074;8.822;2024-01-30T07:38:12;26.08;;;19.38;;
6757;SDS011;3416;53.074;8.822;2024-01-30T07:40:38;28.13;;;20.40;;
6757;SDS011;3416;53.074;8.822;2024-01-30T07:43:06;29.42;;;20.52;;
6757;SDS011;3416;53.074;8.822;2024-01-30T07:45:33;28.90;;;20.83;;
6757;SDS011;3416;53.074;8.822;2024-01-30T07:48:01;27.95;;;21.02;;
6757;SDS011;3416;53.074;8.822;2024-01-30T07:50:29;24.33;;;18.75;;
6757;SDS011;3416;53.074;8.822;2024-01-30T07:52:56;21.55;;;17.08;;
6757;SDS011;3416;53.074;8.822;2024-01-30T07:55:26;22.90;;;18.85;;
6757;SDS011;3416;53.074;8.822;2024-01-30T07:57:54;22.73;;;18.23;;
6757;SDS011;3416;53.074;8.822;2024-01-30T08:00:21;19.60;;;15.85;;
6757;SDS011;3416;53.074;8.822;2024-01-30T08:02:48;22.60;;;17.55;;
6757;SDS011;3416;53.074;8.822;2024-01-30T08:05:17;24.75;;;18.30;;
6757;SDS011;3416;53.074;8.822;2024-01-30T08:07:44;24.17;;;16.95;;
6757;SDS011;3416;53.074;8.822;2024-01-30T08:10:11;22.13;;;17.58;;
6757;SDS011;3416;53.074;8.822;2024-01-30T08:12:38;18.63;;;15.23;;
6757;SDS011;3416;53.074;8.822;2024-01-30T08:15:05;23.35;;;16.42;;
6757;SDS011;3416;53.074;8.822;2024-01-30T08:17:33;19.33;;;17.15;;
6757;SDS011;3416;53.074;8.822;2024-01-30T08:20:00;26.38;;;17.05;;
6757;SDS011;3416;53.074;8.822;2024-01-30T08:22:31;24.05;;;18.08;;
6757;SDS011;3416;53.074;8.822;2024-01-30T08:24:58;21.83;;;15.57;;
6757;SDS011;3416;53.074;8.822;2024-01-30T08:27:25;21.38;;;17.15;;
6757;SDS011;3416;53.074;8.822;2024-01-30T08:29:52;21.58;;;17.52;;
6757;SDS011;3416;53.074;8.822;2024-01-30T08:32:20;18.65;;;15.77;;
6757;SDS011;3416;53.074;8.822;2024-01-30T08:34:47;23.70;;;17.17;;
6757;SDS011;3416;53.074;8.822;2024-01-30T08:37:14;19.65;;;16.83;;
6757;SDS011;3416;53.074;8.822;2024-01-30T08:39:43;28.35;;;17.42;;
6757;SDS011;3416;53.074;8.822;2024-01-30T08:42:10;18.98;;;14.82;;
6757;SDS011;3416;53.074;8.822;2024-01-30T08:44:37;17.17;;;14.70;;
6757;SDS011;3416;53.074;8.822;2024-01-30T08:47:04;19.65;;;15.20;;
6757;SDS011;3416;53.074;8.822;2024-01-30T08:49:32;20.95;;;14.68;;
6757;SDS011;3416;53.074;8.822;2024-01-30T08:51:59;21.40;;;16.27;;
6757;SDS011;3416;53.074;8.822;2024-01-30T08:54:26;19.20;;;15.93;;
6757;SDS011;3416;53.074;8.822;2024-01-30T08:56:54;18.05;;;14.15;;
6757;SDS011;3416;53.074;8.822;2024-01-30T08:59:23;18.48;;;16.45;;
6757;SDS011;3416;53.074;8.822;2024-01-30T09:01:50;18.27;;;15.43;;
6757;SDS011;3416;53.074;8.822;2024-01-30T09:04:20;25.45;;;15.20;;
6757;SDS011;3416;53.074;8.822;2024-01-30T09:06:47;25.40;;;16.75;;
6757;SDS011;3416;53.074;8.822;2024-01-30T09:09:15;18.42;;;14.55;;
6757;SDS011;3416;53.074;8.822;2024-01-30T09:11:42;19.38;;;15.63;;
6757;SDS011;3416;53.074;8.822;2024-01-30T09:14:12;23.55;;;17.90;;
6757;SDS011;3416;53.074;8.822;2024-01-30T09:16:39;17.38;;;13.20;;
6757;SDS011;3416;53.074;8.822;2024-01-30T09:19:06;19.52;;;15.43;;
6757;SDS011;3416;53.074;8.822;2024-01-30T09:21:33;18.08;;;14.98;;
6757;SDS011;3416;53.074;8.822;2024-01-30T09:24:02;17.35;;;13.73;;
6757;SDS011;3416;53.074;8.822;2024-01-30T09:26:30;22.98;;;16.55;;
6757;SDS011;3416;53.074;8.822;2024-01-30T09:28:57;20.00;;;15.30;;
6757;SDS011;3416;53.074;8.822;2024-01-30T09:31:26;16.67;;;14.65;;
6757;SDS011;3416;53.074;8.822;2024-01-30T09:33:54;17.50;;;14.48;;
6757;SDS011;3416;53.074;8.822;2024-01-30T09:36:21;20.20;;;16.25;;
6757;SDS011;3416;53.074;8.822;2024-01-30T09:38:48;21.83;;;14.68;;
6757;SDS011;3416;53.074;8.822;2024-01-30T09:41:15;17.88;;;14.10;;
6757;SDS011;3416;53.074;8.822;2024-01-30T09:43:46;19.83;;;13.88;;
6757;SDS011;3416;53.074;8.822;2024-01-30T09:46:14;24.38;;;13.02;;
6757;SDS011;3416;53.074;8.822;2024-01-30T09:48:45;18.90;;;13.77;;
6757;SDS011;3416;53.074;8.822;2024-01-30T09:51:14;21.17;;;16.40;;
6757;SDS011;3416;53.074;8.822;2024-01-30T09:53:42;24.23;;;14.65;;
6757;SDS011;3416;53.074;8.822;2024-01-30T09:56:10;15.73;;;12.80;;
6757;SDS011;3416;53.074;8.822;2024-01-30T09:58:38;19.50;;;14.30;;
6757;SDS011;3416;53.074;8.822;2024-01-30T10:01:06;15.98;;;12.85;;
6757;SDS011;3416;53.074;8.822;2024-01-30T10:03:33;15.63;;;13.27;;
6757;SDS011;3416;53.074;8.822;2024-01-30T10:06:01;17.48;;;12.75;;
6757;SDS011;3416;53.074;8.822;2024-01-30T10:08:28;19.85;;;13.80;;
6757;SDS011;3416;53.074;8.822;2024-01-30T10:10:56;14.20;;;12.10;;
6757;SDS011;3416;53.074;8.822;2024-01-30T10:13:24;16.35;;;11.35;;
6757;SDS011;3416;53.074;8.822;2024-01-30T10:15:52;14.45;;;12.10;;
6757;SDS011;3416;53.074;8.822;2024-01-30T10:18:20;15.65;;;11.55;;
6757;SDS011;3416;53.074;8.822;2024-01-30T10:20:48;16.80;;;13.30;;
6757;SDS011;3416;53.074;8.822;2024-01-30T10:23:17;17.58;;;11.70;;
6757;SDS011;3416;53.074;8.822;2024-01-30T10:25:44;16.58;;;11.90;;
6757;SDS011;3416;53.074;8.822;2024-01-30T10:28:11;13.55;;;11.50;;
6757;SDS011;3416;53.074;8.822;2024-01-30T10:30:38;12.50;;;11.27;;
6757;SDS011;3416;53.074;8.822;2024-01-30T10:33:05;14.55;;;10.70;;
6757;SDS011;3416;53.074;8.822;2024-01-30T10:35:32;16.27;;;12.88;;
6757;SDS011;3416;53.074;8.822;2024-01-30T10:38:00;14.40;;;11.70;;
6757;SDS011;3416;53.074;8.822;2024-01-30T10:40:29;15.60;;;12.93;;
6757;SDS011;3416;53.074;8.822;2024-01-30T10:42:57;16.55;;;12.00;;
6757;SDS011;3416;53.074;8.822;2024-01-30T10:45:29;18.65;;;12.63;;
6757;SDS011;3416;53.074;8.822;2024-01-30T10:47:58;12.32;;;11.02;;
6757;SDS011;3416;53.074;8.822;2024-01-30T10:50:26;16.02;;;12.05;;
6757;SDS011;3416;53.074;8.822;2024-01-30T10:52:53;14.95;;;11.55;;
6757;SDS011;3416;53.074;8.822;2024-01-30T10:55:22;14.82;;;11.38;;
6757;SDS011;3416;53.074;8.822;2024-01-30T10:57:51;13.88;;;11.00;;
6757;SDS011;3416;53.074;8.822;2024-01-30T11:00:19;13.38;;;11.38;;
6757;SDS011;3416;53.074;8.822;2024-01-30T11:02:48;15.25;;;11.20;;
6757;SDS011;3416;53.074;8.822;2024-01-30T11:05:23;13.13;;;11.05;;
6757;SDS011;3416;53.074;8.822;2024-01-30T11:07:51;16.60;;;12.68;;
6757;SDS011;3416;53.074;8.822;2024-01-30T11:10:18;14.25;;;11.27;;
6757;SDS011;3416;53.074;8.822;2024-01-30T11:12:46;13.20;;;11.38;;
6757;SDS011;3416;53.074;8.822;2024-01-30T11:15:16;14.43;;;11.80;;
6757;SDS011;3416;53.074;8.822;2024-01-30T11:17:45;13.90;;;10.63;;
6757;SDS011;3416;53.074;8.822;2024-01-30T11:20:19;14.50;;;10.73;;
6757;SDS011;3416;53.074;8.822;2024-01-30T11:22:48;15.07;;;11.73;;
6757;SDS011;3416;53.074;8.822;2024-01-30T11:25:17;16.90;;;12.90;;
6757;SDS011;3416;53.074;8.822;2024-01-30T11:27:47;12.57;;;10.68;;
6757;SDS011;3416;53.074;8.822;2024-01-30T11:30:25;15.95;;;11.50;;
6757;SDS011;3416;53.074;8.822;2024-01-30T11:33:03;12.52;;;10.52;;
6757;SDS011;3416;53.074;8.822;2024-01-30T11:35:35;13.27;;;11.23;;
6757;SDS011;3416;53.074;8.822;2024-01-30T11:38:03;16.17;;;10.07;;
6757;SDS011;3416;53.074;8.822;2024-01-30T11:40:32;17.33;;;11.48;;
6757;SDS011;3416;53.074;8.822;2024-01-30T11:43:00;16.38;;;9.93;;
6757;SDS011;3416;53.074;8.822;2024-01-30T11:45:29;14.00;;;11.40;;
6757;SDS011;3416;53.074;8.822;2024-01-30T11:47:57;15.77;;;10.98;;
6757;SDS011;3416;53.074;8.822;2024-01-30T11:50:25;17.50;;;13.05;;
6757;SDS011;3416;53.074;8.822;2024-01-30T11:52:53;16.77;;;12.10;;
6757;SDS011;3416;53.074;8.822;2024-01-30T11:55:21;11.63;;;10.50;;
6757;SDS011;3416;53.074;8.822;2024-01-30T11:57:49;14.68;;;10.60;;
6757;SDS011;3416;53.074;8.822;2024-01-30T12:00:16;17.60;;;11.57;;
6757;SDS011;3416;53.074;8.822;2024-01-30T12:02:50;15.73;;;11.43;;
6757;SDS011;3416;53.074;8.822;2024-01-30T12:05:20;12.57;;;10.13;;
6757;SDS011;3416;53.074;8.822;2024-01-30T12:07:48;14.35;;;11.05;;
6757;SDS011;3416;53.074;8.822;2024-01-30T12:10:15;20.20;;;11.20;;
6757;SDS011;3416;53.074;8.822;2024-01-30T12:12:43;12.82;;;10.20;;
6757;SDS011;3416;53.074;8.822;2024-01-30T12:15:12;14.73;;;11.63;;
6757;SDS011;3416;53.074;8.822;2024-01-30T12:17:39;15.05;;;11.40;;
6757;SDS011;3416;53.074;8.822;2024-01-30T12:20:09;15.60;;;10.60;;
6757;SDS011;3416;53.074;8.822;2024-01-30T12:22:37;15.48;;;11.68;;
6757;SDS011;3416;53.074;8.822;2024-01-30T12:25:05;13.13;;;11.10;;
6757;SDS011;3416;53.074;8.822;2024-01-30T12:27:34;16.58;;;11.90;;
6757;SDS011;3416;53.074;8.822;2024-01-30T12:30:01;13.10;;;11.45;;
6757;SDS011;3416;53.074;8.822;2024-01-30T12:32:31;12.75;;;10.63;;
6757;SDS011;3416;53.074;8.822;2024-01-30T12:34:58;14.35;;;11.43;;
6757;SDS011;3416;53.074;8.822;2024-01-30T12:37:26;14.60;;;11.43;;
6757;SDS011;3416;53.074;8.822;2024-01-30T12:39:55;13.95;;;12.45;;
6757;SDS011;3416;53.074;8.822;2024-01-30T12:42:23;21.05;;;11.57;;
6757;SDS011;3416;53.074;8.822;2024-01-30T12:44:50;19.02;;;11.57;;
6757;SDS011;3416;53.074;8.822;2024-01-30T12:47:16;15.85;;;12.02;;
6757;SDS011;3416;53.074;8.822;2024-01-30T12:49:44;16.00;;;12.75;;
6757;SDS011;3416;53.074;8.822;2024-01-30T12:52:11;13.15;;;10.55;;
6757;SDS011;3416;53.074;8.822;2024-01-30T12:54:41;13.45;;;11.32;;
6757;SDS011;3416;53.074;8.822;2024-01-30T12:57:09;16.42;;;10.88;;
6757;SDS011;3416;53.074;8.822;2024-01-30T12:59:40;17.27;;;10.13;;
6757;SDS011;3416;53.074;8.822;2024-01-30T13:02:07;15.15;;;12.05;;
6757;SDS011;3416;53.074;8.822;2024-01-30T13:04:34;16.20;;;12.18;;
6757;SDS011;3416;53.074;8.822;2024-01-30T13:07:01;16.02;;;11.68;;
6757;SDS011;3416;53.074;8.822;2024-01-30T13:09:30;16.90;;;12.65;;
6757;SDS011;3416;53.074;8.822;2024-01-30T13:11:58;12.20;;;10.88;;
6757;SDS011;3416;53.074;8.822;2024-01-30T13:14:26;25.45;;;11.43;;
6757;SDS011;3416;53.074;8.822;2024-01-30T13:16:53;14.85;;;11.05;;
6757;SDS011;3416;53.074;8.822;2024-01-30T13:19:20;17.42;;;10.90;;
6757;SDS011;3416;53.074;8.822;2024-01-30T13:21:47;13.90;;;11.25;;
6757;SDS011;3416;53.074;8.822;2024-01-30T13:24:14;17.33;;;10.07;;
6757;SDS011;3416;53.074;8.822;2024-01-30T13:26:42;14.52;;;11.10;;
6757;SDS011;3416;53.074;8.822;2024-01-30T13:29:10;15.32;;;11.70;;
6757;SDS011;3416;53.074;8.822;2024-01-30T13:31:37;19.52;;;10.88;;
6757;SDS011;3416;53.074;8.822;2024-01-30T13:34:06;15.35;;;11.88;;
6757;SDS011;3416;53.074;8.822;2024-01-30T13:36:33;16.20;;;12.45;;
6757;SDS011;3416;53.074;8.822;2024-01-30T13:39:00;18.38;;;12.73;;
6757;SDS011;3416;53.074;8.822;2024-01-30T13:41:27;21.52;;;12.48;;
6757;SDS011;3416;53.074;8.822;2024-01-30T13:43:55;13.80;;;11.00;;
6757;SDS011;3416;53.074;8.822;2024-01-30T13:46:23;19.30;;;12.45;;
6757;SDS011;3416;53.074;8.822;2024-01-30T13:48:50;16.95;;;12.18;;
6757;SDS011;3416;53.074;8.822;2024-01-30T13:51:17;17.98;;;13.60;;
6757;SDS011;3416;53.074;8.822;2024-01-30T13:53:45;12.57;;;11.25;;
6757;SDS011;3416;53.074;8.822;2024-01-30T13:56:12;20.38;;;11.77;;
6757;SDS011;3416;53.074;8.822;2024-01-30T13:58:39;20.85;;;11.05;;
6757;SDS011;3416;53.074;8.822;2024-01-30T14:01:06;22.42;;;13.20;;
6757;SDS011;3416;53.074;8.822;2024-01-30T14:03:36;22.40;;;12.45;;
6757;SDS011;3416;53.074;8.822;2024-01-30T14:06:03;12.60;;;10.95;;
6757;SDS011;3416;53.074;8.822;2024-01-30T14:08:31;16.98;;;11.93;;
6757;SDS011;3416;53.074;8.822;2024-01-30T14:10:58;20.65;;;12.93;;
6757;SDS011;3416;53.074;8.822;2024-01-30T14:13:25;16.45;;;13.25;;
6757;SDS011;3416;53.074;8.822;2024-01-30T14:15:52;17.42;;;10.93;;
6757;SDS011;3416;53.074;8.822;2024-01-30T14:18:19;14.07;;;12.48;;
6757;SDS011;3416;53.074;8.822;2024-01-30T14:20:48;18.38;;;12.30;;
6757;SDS011;3416;53.074;8.822;2024-01-30T14:23:17;14.15;;;11.23;;
6757;SDS011;3416;53.074;8.822;2024-01-30T14:25:44;16.83;;;12.35;;
6757;SDS011;3416;53.074;8.822;2024-01-30T14:28:11;20.08;;;13.20;;
6757;SDS011;3416;53.074;8.822;2024-01-30T14:30:38;17.25;;;12.48;;
6757;SDS011;3416;53.074;8.822;2024-01-30T14:33:05;16.45;;;12.95;;
6757;SDS011;3416;53.074;8.822;2024-01-30T14:35:33;20.15;;;12.48;;
6757;SDS011;3416;53.074;8.822;2024-01-30T14:38:02;17.67;;;12.18;;
6757;SDS011;3416;53.074;8.822;2024-01-30T14:40:30;14.88;;;11.25;;
6757;SDS011;3416;53.074;8.822;2024-01-30T14:42:57;18.60;;;11.60;;
6757;SDS011;3416;53.074;8.822;2024-01-30T14:45:24;15.43;;;11.23;;
6757;SDS011;3416;53.074;8.822;2024-01-30T14:47:51;19.25;;;12.25;;
6757;SDS011;3416;53.074;8.822;2024-01-30T14:50:19;15.52;;;11.63;;